Avon, Indiana
Current Conditions -  °F | °C
As of 12:53 PM on Thursday 23 Oct 2014 (Local Time) from KEYE Reporting Station
Clear Clear  
Wind Chill: 12°   Ceiling: Unl
Heat Index: 12°   Visibility: 10mi
Dew Point:   Wind: 0mph
Humidity: 64%   Direction: NA
Pressure: 30.22"   Gusts: NA
Location:  39.76°N, 86.4°W
Report Text: KEYE 231653Z AUTO 00000KT 10SM CLR 12/06 A3022 RMK AO2 SLP237 T01220056
Loading
Personal Weather Stations






























Interactive Weather Map New forecast layout! Learn more

10-Day Weather Forecast

Advertisements
Track Severe Weather on mobile